MMGL/GDL METAR and TAF weather

Enter ICAO airport designator
Station Type Date Time Source
MMGL METAR 2021/05/14 05:46 UTC NOAA

MMGL 140546Z 14006KT 8SM SCT025 BKN100 24/10 A3022 RMK SLP096 52024 950 8/460


Station Type Date Time Source
MMGL Decoded METAR 2021/05/14 05:46 UTC NOAA

Don Miguel / Guadalaj, Mexico (MMGL) 20-31N 103-19W
May 14, 2021 - 01:46 AM EDT / 2021.05.14 0546 UTC
Wind: from the SE (140 degrees) at 7 MPH (6 KT):0
Visibility: 8 mile(s):0
Sky conditions: mostly cloudy
Temperature: 75 F (24 C)
Dew Point: 50 F (10 C)
Relative Humidity: 41%
Pressure (altimeter): 30.22 in. Hg (1023 hPa)
Pressure tendency: 0.07 inches (2.4 hPa) higher than three hours ago
ob: MMGL 140546Z 14006KT 8SM SCT025 BKN100 24/10 A3022 RMK SLP096 52024 950 8/460
cycle: 6

Station Type Date Time Source
MMGL TAF 2021/05/14 06:36 UTC NOAA

TAF TAF MMGL 140333Z 1406/1512 14005KT P6SM SCT020 BKN070 TX30/1420Z TN16/1412Z
FM141600 08005KT P6SM SCT020 SCT100
FM142200 08010KT P6SM SCT020CB BKN080 PROB40 1422/1502 3SM TSRA BKN015CB
FM150300 24005KT P6SM SCT030 BKN200

Example: see airport list